Registrering Status Plassering
LN-NAZ Operativ Rakkestad - ENRK 

Søk
Nye sertifikater

Sertifikater

Kontakt informasjon

Follo flyklubb.
Postboks 226, N-1401 Ski
Epost: post@follo-flyklubb.no

Tel: 64 87 13 82
Du er her: Hovedside

Hovedside

 

Follo flyklubb er en flyklubb med primærbase på Ski flyplass, og sekundærbase (vinterbase) på Rakkestad flyplass. Disse websidene er ment som en informasjonskanal til flyklubbens medlemmer, og andre som måtte være interessert i Follo flyklubbs virksomhet. Har du kommentarer eller bidrag du ønsker å dele med flyklubben, send oss en melding her.

Har noen av flyklubbens medlemmer forslag til turer, aktiviteter eller kurs- og infokvelder dere ønsker at vi deltar på eller avholder, så gi beskjed til styret via epost.

 

Før flyturen: Ta en sjekk på datoer i sertifikatene dine. Husk at det er forskjell på gyldighetsdato for PPL-sertifikatet og klasserettighet, som f.eks. SEP. Her er noen nyttige spørsmål, og litt om rettigheter her.

ENGM 211850Z 32005KT 280V350 9999 VCSH FEW030CB FEW050 BKN090 09/06 Q1004 TEMPO SHRA
ENTO 211850Z 02005KT 330V070 9999 VCSH FEW023 SCT045CB SCT100 12/07 Q1004 RESHRA
ENRY 211850Z AUTO 32010KT 9999NDV FEW082/// 13/06 Q1004
ENSN 090850Z 20010G22KT 150V240 CAVOK 07/03 Q1000
ENCN 211850Z 31010KT 260V360 9999 FEW045TCU 16/02 Q1006
ENZV 211850Z 33017KT 9999 FEW020TCU FEW040 12/06 Q1011 NOSIG
ENFL 211850Z 32014KT 9999 FEW012 SCT030 11/07 Q1012
ENFG 220850Z 19007KT CAVOK 06/M03 Q1014
ENNO 211650Z 31010G24KT 290V350 9999 -SHRA BKN055 14/05 Q1005
 

Leie av fly

Follo flyklubbs medlemmer har anledning til å leie LN-NAZ, booking skjer til Olav Kjeserud på telefon 901 45 867.